Time;durP1;ratioP1;P1;durP2;ratioP2;P2;SDS_P1;SDS_P2;PMS_P1;PMS_P2;Temp;Humidity;BMP_temperature;BMP_pressure;BME280_temperature;BME280_humidity;BME280_pressure;Samples;Min_cycle;Max_cycle;Signal;HPM_P1;HPM_P2
2021/10/17 00:00:36;;;;;;;26.00;22.93;;;8.10;99.90;;;;;;5038325;28;20855;-89
2021/10/17 00:03:04;;;;;;;25.00;22.20;;;8.00;99.90;;;;;;5036221;28;20433;-88
2021/10/17 00:05:33;;;;;;;27.60;22.83;;;8.00;99.90;;;;;;5035446;28;20507;-91
2021/10/17 00:08:01;;;;;;;29.97;22.80;;;8.00;99.90;;;;;;5034525;28;20469;-88
2021/10/17 00:10:32;;;;;;;24.80;22.27;;;7.90;99.90;;;;;;5034632;28;20888;-90
2021/10/17 00:13:01;;;;;;;26.70;22.30;;;7.90;99.90;;;;;;5034514;28;20478;-88
2021/10/17 00:15:29;;;;;;;29.33;20.43;;;7.90;99.90;;;;;;5034223;28;20441;-90
2021/10/17 00:17:58;;;;;;;23.27;20.97;;;7.90;99.90;;;;;;5032023;28;20461;-88
2021/10/17 00:20:28;;;;;;;25.83;22.93;;;7.80;99.90;;;;;;5032531;28;20942;-90
2021/10/17 00:22:55;;;;;;;27.00;24.17;;;7.90;99.90;;;;;;5031277;28;20834;-89
2021/10/17 00:25:22;;;;;;;23.23;20.83;;;7.80;99.90;;;;;;5034779;28;20448;-90
2021/10/17 00:27:49;;;;;;;24.33;21.40;;;7.90;99.90;;;;;;5034147;28;20469;-88
2021/10/17 00:30:16;;;;;;;27.27;23.47;;;7.80;99.90;;;;;;5034210;28;20445;-89
2021/10/17 00:32:43;;;;;;;27.53;24.23;;;7.80;99.90;;;;;;5035404;28;20871;-89
2021/10/17 00:35:12;;;;;;;26.77;22.67;;;7.70;99.90;;;;;;5033484;28;21015;-90
2021/10/17 00:37:41;;;;;;;27.53;22.33;;;7.70;99.90;;;;;;5035288;28;20996;-89
2021/10/17 00:40:10;;;;;;;28.23;22.43;;;7.60;99.90;;;;;;5044953;28;20441;-89
2021/10/17 00:42:38;;;;;;;26.13;22.90;;;7.60;99.90;;;;;;5055665;28;20442;-90
2021/10/17 00:45:08;;;;;;;24.93;21.30;;;7.60;99.90;;;;;;5035854;28;20903;-89
2021/10/17 00:47:35;;;;;;;26.47;22.10;;;7.60;99.90;;;;;;5033894;28;20468;-89
2021/10/17 00:50:02;;;;;;;26.20;21.80;;;7.70;99.90;;;;;;5033297;28;20476;-90
2021/10/17 00:52:29;;;;;;;25.03;22.43;;;7.60;99.90;;;;;;5033530;28;20508;-90
2021/10/17 00:54:57;;;;;;;24.53;21.77;;;7.60;99.90;;;;;;5033845;28;20535;-89
2021/10/17 00:57:24;;;;;;;23.07;20.10;;;7.60;99.90;;;;;;5034824;28;20469;-89
2021/10/17 00:59:50;;;;;;;24.17;21.73;;;7.60;99.90;;;;;;5037303;28;20445;-89
2021/10/17 01:02:17;;;;;;;23.93;21.33;;;7.50;99.90;;;;;;5033335;28;20473;-89
2021/10/17 01:04:44;;;;;;;23.17;18.70;;;7.60;99.90;;;;;;5033964;28;20954;-89
2021/10/17 01:07:11;;;;;;;25.90;21.10;;;7.50;99.90;;;;;;5034117;28;20814;-89
2021/10/17 01:09:39;;;;;;;23.40;19.90;;;7.50;99.90;;;;;;5033710;28;20448;-89
2021/10/17 01:12:10;;;;;;;21.20;18.80;;;7.50;99.90;;;;;;5033472;28;20452;-89
2021/10/17 01:14:37;;;;;;;24.10;20.40;;;7.60;99.90;;;;;;5033546;28;20496;-89
2021/10/17 01:17:04;;;;;;;20.03;17.93;;;7.50;99.90;;;;;;5033095;28;20515;-90
2021/10/17 01:19:31;;;;;;;23.87;19.30;;;7.50;99.90;;;;;;5034681;28;20441;-89
2021/10/17 01:21:59;;;;;;;24.43;20.30;;;7.40;99.90;;;;;;5053945;28;20438;-88
2021/10/17 01:24:26;;;;;;;19.80;17.70;;;7.50;99.90;;;;;;5054532;28;20434;-88
2021/10/17 01:26:53;;;;;;;20.63;18.43;;;7.50;99.90;;;;;;5037513;28;20880;-89
2021/10/17 01:29:20;;;;;;;21.17;18.57;;;7.40;99.90;;;;;;5033980;28;20442;-89
2021/10/17 01:31:51;;;;;;;21.80;19.57;;;7.40;99.90;;;;;;5054220;28;20475;-88
2021/10/17 01:34:19;;;;;;;20.37;18.27;;;7.50;99.90;;;;;;5046243;28;20474;-89
2021/10/17 01:36:46;;;;;;;23.70;19.57;;;7.40;99.90;;;;;;5047876;28;20468;-89
2021/10/17 01:39:16;;;;;;;21.77;18.50;;;7.40;99.90;;;;;;5035848;28;20441;-89
2021/10/17 01:41:43;;;;;;;21.23;18.97;;;7.50;99.90;;;;;;5042083;28;20442;-89
2021/10/17 01:44:11;;;;;;;23.90;20.67;;;7.40;99.90;;;;;;5033641;28;21003;-89
2021/10/17 01:46:39;;;;;;;21.00;18.73;;;7.50;99.90;;;;;;5033513;28;20472;-89
2021/10/17 01:49:07;;;;;;;21.90;19.30;;;7.40;99.90;;;;;;5037505;28;20456;-89
2021/10/17 01:51:34;;;;;;;22.33;19.93;;;7.50;99.90;;;;;;5036840;28;20449;-89
2021/10/17 01:54:03;;;;;;;22.40;19.37;;;7.50;99.90;;;;;;5032980;28;20481;-89
2021/10/17 01:56:31;;;;;;;24.47;20.00;;;7.50;99.90;;;;;;5032640;28;20556;-90
2021/10/17 01:58:58;;;;;;;26.07;21.30;;;7.50;99.90;;;;;;5055524;28;20425;-88
2021/10/17 02:01:26;;;;;;;24.13;19.97;;;7.60;99.90;;;;;;5044288;28;20437;-89
2021/10/17 02:03:53;;;;;;;23.17;20.00;;;7.60;99.90;;;;;;5034172;28;20503;-89
2021/10/17 02:06:19;;;;;;;22.10;19.70;;;7.60;99.90;;;;;;5033110;28;20468;-89
2021/10/17 02:08:46;;;;;;;21.67;19.30;;;7.60;99.90;;;;;;5032472;28;20453;-89
2021/10/17 02:11:13;;;;;;;24.20;20.47;;;7.60;99.90;;;;;;5031802;28;20881;-89
2021/10/17 02:13:41;;;;;;;25.00;21.43;;;7.60;99.90;;;;;;5033520;28;20473;-89
2021/10/17 02:16:08;;;;;;;20.63;18.33;;;7.70;99.90;;;;;;5033451;28;20564;-89
2021/10/17 02:18:35;;;;;;;21.83;19.60;;;7.70;99.90;;;;;;5032117;28;20453;-89
2021/10/17 02:21:03;;;;;;;25.27;21.00;;;7.70;99.90;;;;;;5032434;28;20445;-89
2021/10/17 02:23:29;;;;;;;21.37;18.97;;;7.70;99.90;;;;;;5032327;28;20445;-89
2021/10/17 02:25:56;;;;;;;24.97;21.23;;;7.70;99.90;;;;;;5033173;28;20456;-89
2021/10/17 02:28:23;;;;;;;25.40;20.50;;;7.70;99.90;;;;;;5037183;28;20941;-89
2021/10/17 02:30:51;;;;;;;21.90;18.90;;;7.60;99.90;;;;;;5047072;28;20445;-90
2021/10/17 02:33:18;;;;;;;21.93;19.60;;;7.70;99.90;;;;;;5061640;28;20455;-88
2021/10/17 02:35:44;;;;;;;20.63;18.00;;;7.70;99.90;;;;;;5061941;28;20430;-89
2021/10/17 02:38:12;;;;;;;21.73;19.30;;;7.60;99.90;;;;;;5061103;28;20441;-88
2021/10/17 02:40:39;;;;;;;24.67;20.17;;;7.50;99.90;;;;;;5041311;28;20437;-89
2021/10/17 02:43:07;;;;;;;21.20;19.00;;;7.50;99.90;;;;;;5037220;28;20437;-89
2021/10/17 02:45:34;;;;;;;21.40;19.10;;;7.50;99.90;;;;;;5036113;28;20473;-89
2021/10/17 02:48:02;;;;;;;21.77;18.30;;;7.50;99.90;;;;;;5035531;28;20464;-89
2021/10/17 02:50:29;;;;;;;20.47;18.33;;;7.50;99.90;;;;;;5035210;28;20445;-89
2021/10/17 02:52:55;;;;;;;22.00;19.67;;;7.50;99.90;;;;;;5036076;28;20433;-89
2021/10/17 02:55:22;;;;;;;21.60;19.30;;;7.50;99.90;;;;;;5039103;28;21052;-89
2021/10/17 02:57:49;;;;;;;20.50;18.43;;;7.50;99.90;;;;;;5039490;28;20480;-89
2021/10/17 03:00:17;;;;;;;21.83;19.63;;;7.50;99.90;;;;;;5038418;28;20446;-90
2021/10/17 03:02:44;;;;;;;23.23;19.50;;;7.50;99.90;;;;;;5037026;28;20453;-89
2021/10/17 03:05:12;;;;;;;24.50;22.07;;;7.60;99.90;;;;;;5036674;28;20449;-89
2021/10/17 03:07:38;;;;;;;23.63;20.93;;;7.60;99.90;;;;;;5035775;28;20519;-89
2021/10/17 03:10:06;;;;;;;22.80;20.20;;;7.60;99.90;;;;;;5034698;28;20442;-90
2021/10/17 03:12:33;;;;;;;25.50;18.60;;;7.60;99.90;;;;;;5035893;28;20836;-89
2021/10/17 03:15:00;;;;;;;25.10;20.50;;;7.60;99.90;;;;;;5034762;28;20476;-90
2021/10/17 03:17:26;;;;;;;23.73;19.90;;;7.60;99.90;;;;;;5038460;28;20465;-89
2021/10/17 03:19:53;;;;;;;21.50;19.17;;;7.70;99.90;;;;;;5054239;28;20483;-88
2021/10/17 03:22:21;;;;;;;22.57;19.40;;;7.70;99.90;;;;;;5050244;28;20921;-89
2021/10/17 03:24:48;;;;;;;20.77;18.57;;;7.70;99.90;;;;;;5053103;28;20449;-89
2021/10/17 03:27:15;;;;;;;25.27;20.50;;;7.60;99.90;;;;;;5038800;28;20469;-89
2021/10/17 03:29:41;;;;;;;21.07;18.97;;;7.60;99.90;;;;;;5035701;28;20448;-90
2021/10/17 03:32:08;;;;;;;23.13;20.63;;;7.60;99.90;;;;;;5036308;28;20457;-88
2021/10/17 03:34:35;;;;;;;23.63;19.00;;;7.50;99.90;;;;;;5036138;28;20480;-89
2021/10/17 03:37:02;;;;;;;23.10;20.70;;;7.60;99.90;;;;;;5034225;28;20473;-88
2021/10/17 03:39:30;;;;;;;22.90;19.00;;;7.50;99.90;;;;;;5039297;28;20461;-89
2021/10/17 03:41:56;;;;;;;23.23;20.73;;;7.60;99.90;;;;;;5056524;28;20422;-89
2021/10/17 03:44:23;;;;;;;25.90;20.60;;;7.70;99.90;;;;;;5044931;28;20935;-89
2021/10/17 03:46:50;;;;;;;22.00;19.40;;;7.70;99.90;;;;;;5035337;28;20469;-89
2021/10/17 03:49:17;;;;;;;21.50;18.60;;;7.70;99.90;;;;;;5038249;28;20949;-89
2021/10/17 03:51:43;;;;;;;23.23;19.60;;;7.70;99.90;;;;;;5035233;28;20452;-89
2021/10/17 03:54:10;;;;;;;26.60;20.90;;;7.70;99.90;;;;;;5032332;28;20473;-89
2021/10/17 03:56:38;;;;;;;21.10;18.90;;;7.60;99.90;;;;;;5034377;28;20468;-89
2021/10/17 03:59:05;;;;;;;24.27;18.50;;;7.60;99.90;;;;;;5034386;28;20441;-89
2021/10/17 04:01:32;;;;;;;25.10;22.50;;;7.60;99.90;;;;;;5047682;28;20504;-88
2021/10/17 04:03:59;;;;;;;24.27;19.00;;;7.50;99.90;;;;;;5055304;28;20488;-88
2021/10/17 04:06:25;;;;;;;22.83;19.90;;;7.50;99.90;;;;;;5037789;28;20472;-88
2021/10/17 04:08:52;;;;;;;24.60;20.50;;;7.50;99.90;;;;;;5036192;28;20437;-89
2021/10/17 04:11:18;;;;;;;24.57;20.30;;;7.50;99.90;;;;;;5037151;28;20440;-89
2021/10/17 04:13:46;;;;;;;23.30;20.53;;;7.50;99.90;;;;;;5039538;28;20456;-89
2021/10/17 04:16:13;;;;;;;23.57;19.37;;;7.40;99.90;;;;;;5039678;28;20839;-89
2021/10/17 04:18:40;;;;;;;24.80;21.30;;;7.40;99.90;;;;;;5034179;28;20452;-89
2021/10/17 04:21:07;;;;;;;21.03;17.33;;;7.40;99.90;;;;;;5036597;28;20604;-89
2021/10/17 04:23:33;;;;;;;21.13;18.43;;;7.40;99.90;;;;;;5035271;28;20457;-88
2021/10/17 04:26:00;;;;;;;21.53;19.27;;;7.40;99.90;;;;;;5034029;28;20434;-88
2021/10/17 04:28:28;;;;;;;22.83;20.13;;;7.50;99.90;;;;;;5056109;28;20471;-88
2021/10/17 04:30:56;;;;;;;25.03;21.00;;;7.50;99.90;;;;;;5037782;28;20446;-88
2021/10/17 04:33:22;;;;;;;22.73;20.30;;;7.50;99.90;;;;;;5034602;28;20495;-88
2021/10/17 04:35:49;;;;;;;19.77;17.73;;;7.50;99.90;;;;;;5034442;28;20480;-88
2021/10/17 04:38:16;;;;;;;19.73;17.63;;;7.50;99.90;;;;;;5034367;28;20440;-88
2021/10/17 04:40:43;;;;;;;20.10;16.87;;;7.50;99.90;;;;;;5035522;28;20456;-88
2021/10/17 04:43:12;;;;;;;19.87;15.37;;;7.50;99.90;;;;;;5033212;28;20452;-88
2021/10/17 04:45:41;;;;;;;18.20;16.03;;;7.40;99.90;;;;;;5036416;28;20450;-89
2021/10/17 04:48:09;;;;;;;21.30;18.03;;;7.40;99.90;;;;;;5035706;28;20461;-89
2021/10/17 04:50:36;;;;;;;17.10;15.27;;;7.40;99.90;;;;;;5034887;28;20446;-89
2021/10/17 04:53:03;;;;;;;18.63;16.70;;;7.50;99.90;;;;;;5035106;28;20499;-89
2021/10/17 04:55:30;;;;;;;17.90;16.10;;;7.60;99.90;;;;;;5036966;28;20548;-90
2021/10/17 04:57:57;;;;;;;17.13;15.43;;;7.50;99.90;;;;;;5039119;28;20472;-89
2021/10/17 05:00:24;;;;;;;18.23;16.43;;;7.50;99.90;;;;;;5033916;28;20481;-88
2021/10/17 05:02:51;;;;;;;15.63;14.07;;;7.50;99.90;;;;;;5035024;28;20461;-90
2021/10/17 05:05:19;;;;;;;15.37;13.77;;;7.40;99.90;;;;;;5037310;28;20487;-88
2021/10/17 05:07:46;;;;;;;15.60;13.93;;;7.40;99.90;;;;;;5047125;28;20489;-88
2021/10/17 05:10:13;;;;;;;17.33;13.83;;;7.40;99.90;;;;;;5052000;28;20893;-89
2021/10/17 05:12:39;;;;;;;17.30;15.50;;;7.40;99.90;;;;;;5050469;28;20429;-89
2021/10/17 05:15:07;;;;;;;14.37;12.87;;;7.40;99.90;;;;;;5046954;28;20465;-87
2021/10/17 05:17:33;;;;;;;14.03;12.53;;;7.30;99.90;;;;;;5052484;28;20457;-89
2021/10/17 05:20:00;;;;;;;12.77;11.40;;;7.30;99.90;;;;;;5039676;28;20803;-89
2021/10/17 05:22:28;;;;;;;14.70;13.20;;;7.30;99.90;;;;;;5036377;28;20570;-90
2021/10/17 05:24:55;;;;;;;14.63;13.13;;;7.30;99.90;;;;;;5034932;28;20438;-90
2021/10/17 05:27:22;;;;;;;14.10;12.80;;;7.20;99.90;;;;;;5052569;23;20530;-88
2021/10/17 05:29:49;;;;;;;13.93;12.47;;;7.20;99.90;;;;;;5054146;28;20451;-88
2021/10/17 05:32:15;;;;;;;14.37;12.40;;;7.20;99.90;;;;;;5053821;28;20441;-88
2021/10/17 05:34:42;;;;;;;14.00;12.57;;;7.10;99.90;;;;;;5070050;28;20468;-88
2021/10/17 05:37:09;;;;;;;13.33;12.03;;;7.10;99.90;;;;;;5063598;28;20456;-88
2021/10/17 05:39:37;;;;;;;12.87;11.67;;;7.10;99.90;;;;;;5056379;28;20817;-89
2021/10/17 05:42:04;;;;;;;13.97;12.67;;;7.20;99.90;;;;;;5057475;28;20444;-88
2021/10/17 05:44:31;;;;;;;14.77;13.30;;;7.10;99.90;;;;;;5066108;28;20802;-88
2021/10/17 05:46:58;;;;;;;14.70;12.90;;;7.20;99.90;;;;;;5060333;28;20444;-89
2021/10/17 05:49:25;;;;;;;13.07;11.77;;;7.10;99.90;;;;;;5074168;28;20443;-88
2021/10/17 05:51:51;;;;;;;12.47;11.17;;;7.10;99.90;;;;;;5074350;28;20443;-89
2021/10/17 05:54:18;;;;;;;13.33;12.03;;;7.10;99.90;;;;;;5066035;28;20453;-87
2021/10/17 05:56:46;;;;;;;12.97;11.53;;;7.10;99.90;;;;;;5075211;28;20445;-88
2021/10/17 05:59:13;;;;;;;14.87;13.23;;;7.10;99.90;;;;;;5075778;28;20432;-87
2021/10/17 06:01:40;;;;;;;13.40;12.20;;;7.20;99.90;;;;;;5063269;28;20417;-88
2021/10/17 06:04:06;;;;;;;13.30;12.07;;;7.20;99.90;;;;;;5067437;28;20441;-89
2021/10/17 06:06:35;;;;;;;12.43;11.13;;;7.20;99.90;;;;;;5056105;28;20448;-87
2021/10/17 06:09:01;;;;;;;13.63;12.33;;;7.20;99.90;;;;;;5056619;28;21006;-88
2021/10/17 06:11:28;;;;;;;13.63;12.33;;;7.20;99.90;;;;;;5061502;28;20941;-88
2021/10/17 06:13:56;;;;;;;13.70;12.30;;;7.20;99.90;;;;;;5073784;28;20479;-89
2021/10/17 06:16:23;;;;;;;14.33;12.83;;;7.20;99.90;;;;;;5061320;28;20460;-88
2021/10/17 06:18:50;;;;;;;13.80;12.57;;;7.20;99.90;;;;;;5055384;28;20460;-88
2021/10/17 06:21:17;;;;;;;15.50;13.57;;;7.20;99.90;;;;;;5056762;28;20448;-88
2021/10/17 06:23:43;;;;;;;15.03;12.27;;;7.30;99.90;;;;;;5056208;28;20459;-88
2021/10/17 06:26:10;;;;;;;12.97;11.67;;;7.40;99.90;;;;;;5055630;28;20518;-88
2021/10/17 06:28:37;;;;;;;13.70;11.73;;;7.50;99.90;;;;;;5055839;28;20860;-88
2021/10/17 06:31:05;;;;;;;14.80;13.33;;;7.50;99.90;;;;;;5054692;28;20455;-88
2021/10/17 06:33:32;;;;;;;15.97;14.37;;;7.60;99.90;;;;;;5053108;28;20448;-88
2021/10/17 06:35:59;;;;;;;14.50;13.07;;;7.60;99.90;;;;;;5053748;28;20495;-88
2021/10/17 06:38:25;;;;;;;16.50;14.90;;;7.70;99.90;;;;;;5054177;28;20464;-88
2021/10/17 06:40:52;;;;;;;14.87;13.50;;;7.80;99.90;;;;;;5053767;28;20849;-88
2021/10/17 06:43:19;;;;;;;15.07;13.50;;;7.80;99.90;;;;;;5053811;28;20461;-88
2021/10/17 06:45:45;;;;;;;18.60;16.70;;;7.90;99.90;;;;;;5053618;28;20451;-88
2021/10/17 06:48:14;;;;;;;15.87;13.67;;;7.90;99.90;;;;;;5053029;28;20992;-88
2021/10/17 06:50:40;;;;;;;17.03;15.17;;;8.00;99.90;;;;;;5053055;28;20455;-88
2021/10/17 06:53:07;;;;;;;17.47;15.87;;;8.00;99.90;;;;;;5054531;28;20452;-88
2021/10/17 06:55:34;;;;;;;17.80;15.90;;;8.10;99.90;;;;;;5054614;28;20484;-88
2021/10/17 06:58:01;;;;;;;15.97;14.33;;;8.20;99.90;;;;;;5062678;28;20980;-88
2021/10/17 07:00:27;;;;;;;16.57;14.87;;;8.20;99.90;;;;;;5060213;28;20443;-88
2021/10/17 07:02:54;;;;;;;18.13;16.33;;;8.30;99.90;;;;;;5069342;28;20444;-88
2021/10/17 07:05:22;;;;;;;17.03;15.23;;;8.30;99.90;;;;;;5079142;28;20432;-89
2021/10/17 07:07:49;;;;;;;16.53;14.90;;;8.40;99.90;;;;;;5062270;28;21063;-88
2021/10/17 07:10:16;;;;;;;18.30;16.40;;;8.50;99.90;;;;;;5064079;28;20442;-88
2021/10/17 07:12:43;;;;;;;15.50;14.10;;;8.70;99.90;;;;;;5072128;28;20452;-90
2021/10/17 07:15:10;;;;;;;19.53;14.60;;;8.80;99.90;;;;;;5069424;28;20467;-89
2021/10/17 07:17:37;;;;;;;16.73;15.07;;;8.90;99.90;;;;;;5067769;28;20483;-87
2021/10/17 07:20:04;;;;;;;19.03;15.43;;;8.90;99.90;;;;;;5065040;28;20447;-88
2021/10/17 07:22:32;;;;;;;17.47;14.80;;;9.10;99.90;;;;;;5069983;28;20954;-90
2021/10/17 07:24:59;;;;;;;15.23;13.73;;;9.20;99.90;;;;;;5068939;28;20450;-89
2021/10/17 07:27:27;;;;;;;18.40;16.70;;;9.30;99.90;;;;;;5065691;28;20852;-88
2021/10/17 07:29:53;;;;;;;16.40;14.80;;;9.30;99.90;;;;;;5064415;28;20437;-89
2021/10/17 07:32:21;;;;;;;17.30;15.43;;;9.40;99.90;;;;;;5061673;28;20451;-89
2021/10/17 07:34:48;;;;;;;16.13;14.53;;;9.40;99.90;;;;;;5068249;28;20948;-89
2021/10/17 07:37:14;;;;;;;16.80;15.20;;;9.40;99.90;;;;;;5068181;28;20476;-89
2021/10/17 07:39:43;;;;;;;15.93;14.33;;;9.40;99.90;;;;;;5071949;28;20440;-87
2021/10/17 07:42:10;;;;;;;17.50;15.37;;;9.40;99.90;;;;;;5067389;28;20440;-88
2021/10/17 07:44:36;;;;;;;16.30;14.70;;;9.60;99.90;;;;;;5073297;28;20957;-89
2021/10/17 07:47:05;;;;;;;18.13;16.40;;;9.70;99.90;;;;;;5064253;28;20448;-88
2021/10/17 07:49:31;;;;;;;16.30;14.60;;;9.80;99.90;;;;;;5060264;28;20434;-89
2021/10/17 07:51:58;;;;;;;15.60;14.00;;;10.00;99.90;;;;;;5074109;28;20445;-89
2021/10/17 07:54:25;;;;;;;17.43;15.83;;;10.30;99.90;;;;;;5075489;28;20447;-88
2021/10/17 07:56:54;;;;;;;15.20;13.70;;;10.20;99.90;;;;;;5067047;28;20476;-88
2021/10/17 07:59:21;;;;;;;16.50;14.80;;;10.40;99.90;;;;;;5077596;28;20443;-89
2021/10/17 08:01:47;;;;;;;17.00;15.30;;;10.60;99.90;;;;;;5087371;28;20425;-89
2021/10/17 08:04:14;;;;;;;15.27;13.67;;;10.90;99.90;;;;;;5073356;28;20800;-88
2021/10/17 08:06:41;;;;;;;15.83;14.23;;;11.20;99.90;;;;;;5079355;28;20424;-87
2021/10/17 08:09:07;;;;;;;16.70;15.00;;;11.40;99.90;;;;;;5067213;28;20460;-87
2021/10/17 08:11:34;;;;;;;18.00;16.20;;;11.40;99.90;;;;;;5059339;28;20444;-87
2021/10/17 08:14:02;;;;;;;16.87;15.17;;;11.60;99.90;;;;;;5055857;28;20824;-88
2021/10/17 08:16:29;;;;;;;16.37;14.67;;;11.60;99.90;;;;;;5056170;28;20484;-85
2021/10/17 08:18:56;;;;;;;15.80;14.30;;;11.80;99.90;;;;;;5054894;28;20453;-87
2021/10/17 08:21:23;;;;;;;15.10;13.60;;;11.70;99.90;;;;;;5055579;28;20453;-87
2021/10/17 08:23:50;;;;;;;17.03;15.23;;;11.70;99.90;;;;;;5054678;28;20451;-86
2021/10/17 08:26:16;;;;;;;15.50;14.00;;;11.50;99.90;;;;;;5055887;28;20883;-87
2021/10/17 08:28:44;;;;;;;15.07;13.67;;;11.40;99.90;;;;;;5054847;28;20483;-86
2021/10/17 08:31:12;;;;;;;17.63;15.83;;;11.30;99.90;;;;;;5055007;28;20953;-87
2021/10/17 08:33:39;;;;;;;16.90;15.20;;;11.30;99.90;;;;;;5055296;28;20441;-86
2021/10/17 08:36:05;;;;;;;16.40;14.60;;;11.20;99.90;;;;;;5057474;28;20587;-87
2021/10/17 08:38:34;;;;;;;21.40;16.30;;;11.20;99.90;;;;;;5063705;28;20555;-87
2021/10/17 08:41:01;;;;;;;16.60;14.90;;;11.30;99.90;;;;;;5055539;28;20452;-87
2021/10/17 08:43:28;;;;;;;18.47;16.57;;;11.30;99.90;;;;;;5055525;28;20471;-87
2021/10/17 08:45:55;;;;;;;18.43;16.63;;;11.40;99.90;;;;;;5055319;28;20962;-86
2021/10/17 08:48:29;;;;;;;20.30;18.17;;;11.40;99.90;;;;;;5071260;28;20464;-87
2021/10/17 08:50:56;;;;;;;19.53;17.53;;;11.40;99.90;;;;;;5060018;28;20449;-87
2021/10/17 08:53:23;;;;;;;19.57;17.47;;;11.40;99.90;;;;;;5055712;28;20509;-87
2021/10/17 08:55:50;;;;;;;19.30;17.50;;;11.40;99.90;;;;;;5056645;28;20476;-86
2021/10/17 08:58:16;;;;;;;21.60;19.40;;;11.30;99.90;;;;;;5056269;28;20460;-86
2021/10/17 09:00:48;;;;;;;21.00;18.80;;;11.30;99.90;;;;;;5059055;28;20444;-87
2021/10/17 09:03:30;;;;;;;18.37;16.33;;;11.30;99.90;;;;;;5055244;28;20444;-89
2021/10/17 09:05:58;;;;;;;20.97;18.73;;;11.40;99.90;;;;;;5054697;28;20451;-86
2021/10/17 09:08:27;;;;;;;21.13;18.93;;;11.50;99.90;;;;;;5055950;28;20476;-85
2021/10/17 09:10:54;;;;;;;20.27;18.17;;;11.30;99.90;;;;;;5054862;28;20444;-85
2021/10/17 09:13:32;;;;;;;21.30;19.03;;;11.30;99.90;;;;;;5054918;28;20448;-87
2021/10/17 09:15:58;;;;;;;23.57;20.10;;;11.50;99.90;;;;;;5065536;28;20478;-81
2021/10/17 09:18:26;;;;;;;21.53;19.27;;;11.40;99.90;;;;;;5073936;28;20467;-81
2021/10/17 09:21:02;;;;;;;20.37;18.13;;;11.50;99.90;;;;;;5071434;28;20929;-81
2021/10/17 09:23:39;;;;;;;20.30;18.00;;;11.30;99.90;;;;;;5061371;28;20531;-81
2021/10/17 09:26:18;;;;;;;21.33;19.00;;;11.30;99.90;;;;;;5042779;28;20456;-81
2021/10/17 09:28:45;;;;;;;22.20;19.90;;;11.30;99.90;;;;;;5043477;28;21080;-82
2021/10/17 09:31:15;;;;;;;22.40;20.00;;;11.40;99.90;;;;;;5060146;28;20445;-88
2021/10/17 09:33:45;;;;;;;21.10;18.77;;;11.50;99.90;;;;;;5055372;28;20535;-89
2021/10/17 09:36:19;;;;;;;21.43;19.13;;;11.50;99.90;;;;;;5064477;28;20470;-89
2021/10/17 09:38:48;;;;;;;22.13;19.83;;;11.70;99.90;;;;;;5067885;28;20469;-88
2021/10/17 09:41:17;;;;;;;22.53;20.27;;;11.90;99.90;;;;;;5058297;28;20539;-88
2021/10/17 09:43:54;;;;;;;21.23;19.03;;;11.80;99.90;;;;;;5058005;28;20436;-88
2021/10/17 09:46:41;;;;;;;22.73;19.60;;;11.60;99.90;;;;;;5057135;28;20448;-89
2021/10/17 09:49:17;;;;;;;22.87;19.50;;;11.60;99.90;;;;;;5059998;28;20477;-88
2021/10/17 09:51:45;;;;;;;22.73;20.33;;;11.80;99.90;;;;;;5065869;28;20516;-87
2021/10/17 09:54:12;;;;;;;22.47;19.70;;;11.90;99.90;;;;;;5074052;28;20446;-87
2021/10/17 09:56:41;;;;;;;22.00;19.70;;;11.90;99.90;;;;;;5060151;28;20480;-87
2021/10/17 09:59:20;;;;;;;22.37;18.47;;;11.60;99.90;;;;;;5060163;28;20560;-88
2021/10/17 10:01:48;;;;;;;23.30;20.90;;;11.60;99.90;;;;;;5056186;28;20453;-89
2021/10/17 10:04:15;;;;;;;23.10;19.60;;;11.80;99.90;;;;;;5069307;28;21105;-88
2021/10/17 10:06:45;;;;;;;29.03;23.27;;;11.90;99.90;;;;;;5072688;28;20449;-86
2021/10/17 10:09:20;;;;;;;31.37;26.40;;;11.70;99.90;;;;;;5066800;28;20467;-88
2021/10/17 10:11:50;;;;;;;27.17;22.90;;;11.80;99.90;;;;;;5065855;28;20983;-87
2021/10/17 10:14:17;;;;;;;25.63;22.37;;;12.10;99.90;;;;;;5056303;28;20486;-89
2021/10/17 10:16:44;;;;;;;23.57;20.87;;;12.20;99.90;;;;;;5055704;28;20915;-89
2021/10/17 10:19:12;;;;;;;23.77;20.67;;;12.30;99.90;;;;;;5053304;28;20494;-88
2021/10/17 10:21:40;;;;;;;24.37;20.93;;;12.40;99.90;;;;;;5053344;28;20457;-88
2021/10/17 10:24:08;;;;;;;21.83;19.50;;;12.50;99.90;;;;;;5053989;28;20448;-89
2021/10/17 10:26:38;;;;;;;23.97;19.83;;;12.60;99.90;;;;;;5054804;28;20812;-89
2021/10/17 10:29:05;;;;;;;24.00;21.47;;;12.70;99.90;;;;;;5054610;28;20864;-89
2021/10/17 10:31:50;;;;;;;22.10;19.80;;;12.70;99.90;;;;;;5058604;28;20830;-89
2021/10/17 10:34:52;;;;;;;23.47;21.07;;;13.00;99.90;;;;;;5074979;28;20477;-88
2021/10/17 10:37:20;;;;;;;20.80;18.60;;;13.10;99.90;;;;;;5065733;28;20563;-87
2021/10/17 10:40:15;;;;;;;19.67;17.57;;;13.10;99.90;;;;;;5142400;23;20494;-85
2021/10/17 10:42:46;;;;;;;22.43;18.30;;;13.20;99.90;;;;;;5031452;28;20466;-88
2021/10/17 10:45:25;;;;;;;22.10;18.70;;;13.50;99.90;;;;;;5031644;28;20454;-89
2021/10/17 10:48:25;;;;;;;18.70;16.77;;;14.00;99.90;;;;;;5023332;28;20539;-88
2021/10/17 10:50:57;;;;;;;20.07;18.07;;;14.30;99.90;;;;;;5047956;28;20506;-88
2021/10/17 10:53:47;;;;;;;20.70;18.37;;;14.20;99.90;;;;;;5038410;28;20467;-88
2021/10/17 10:56:46;;;;;;;19.87;17.93;;;14.30;99.90;;;;;;5018731;28;20489;-89
2021/10/17 10:59:18;;;;;;;20.00;18.00;;;14.70;99.90;;;;;;5028509;28;20447;-90
2021/10/17 11:02:18;;;;;;;19.77;17.63;;;15.00;99.90;;;;;;5037726;28;20532;-89
2021/10/17 11:05:04;;;;;;;20.50;18.30;;;15.40;99.90;;;;;;4996389;28;20462;-89
2021/10/17 11:07:47;;;;;;;21.50;19.30;;;15.20;99.90;;;;;;5020836;28;21017;-88
2021/10/17 11:10:43;;;;;;;20.77;18.03;;;15.20;99.90;;;;;;5038447;28;20452;-88
2021/10/17 11:13:26;;;;;;;21.80;19.70;;;15.20;99.90;;;;;;5051056;28;20946;-89
2021/10/17 11:15:54;;;;;;;23.50;19.53;;;15.10;99.90;;;;;;5038112;28;20449;-88
2021/10/17 11:18:30;;;;;;;19.67;17.63;;;15.10;99.90;;;;;;5017784;28;20458;-89
2021/10/17 11:20:58;;;;;;;18.37;16.50;;;15.00;99.90;;;;;;5038922;28;20459;-89
2021/10/17 11:23:27;;;;;;;19.80;17.30;;;14.70;99.90;;;;;;5038187;28;20821;-89
2021/10/17 11:25:55;;;;;;;19.80;16.30;;;14.60;99.90;;;;;;5039854;28;20455;-89
2021/10/17 11:28:24;;;;;;;19.07;17.13;;;14.50;99.90;;;;;;5035091;28;20479;-89
2021/10/17 11:31:08;;;;;;;18.63;16.87;;;14.40;99.90;;;;;;5054813;28;20445;-90
2021/10/17 11:33:37;;;;;;;20.60;18.40;;;14.50;99.90;;;;;;5051059;28;21014;-90
2021/10/17 11:36:05;;;;;;;20.43;17.27;;;14.60;99.90;;;;;;5038963;28;20936;-89
2021/10/17 11:38:32;;;;;;;22.87;19.23;;;14.80;99.90;;;;;;5050114;28;20492;-89
2021/10/17 11:41:05;;;;;;;19.07;17.10;;;14.90;99.90;;;;;;5048928;28;20468;-90
2021/10/17 11:43:37;;;;;;;19.60;17.60;;;14.90;99.90;;;;;;5059930;28;20443;-91
2021/10/17 11:46:09;;;;;;;18.73;16.80;;;14.90;99.90;;;;;;5059780;28;20450;-88
2021/10/17 11:48:37;;;;;;;18.50;16.60;;;14.90;99.90;;;;;;5058205;28;20525;-89
2021/10/17 11:51:34;;;;;;;18.87;17.00;;;14.70;99.90;;;;;;5053116;28;20530;-91
2021/10/17 11:54:05;;;;;;;17.30;15.57;;;14.60;99.90;;;;;;5045711;28;20488;-88
2021/10/17 11:56:51;;;;;;;21.07;18.80;;;14.70;99.90;;;;;;5052701;28;20463;-89
2021/10/17 11:59:22;;;;;;;19.83;17.63;;;14.70;99.90;;;;;;5058766;28;20435;-89
2021/10/17 12:01:50;;;;;;;18.53;16.60;;;14.80;99.90;;;;;;5038008;28;20514;-89
2021/10/17 12:04:17;;;;;;;20.57;18.47;;;15.00;99.90;;;;;;5043787;28;20437;-89
2021/10/17 12:06:52;;;;;;;21.13;18.53;;;15.00;99.90;;;;;;5039772;28;20442;-88
2021/10/17 12:09:20;;;;;;;19.73;17.73;;;15.10;99.90;;;;;;5037994;28;20449;-88
2021/10/17 12:11:47;;;;;;;20.00;18.00;;;15.10;99.90;;;;;;5052743;28;20528;-88
2021/10/17 12:14:26;;;;;;;20.83;18.63;;;14.90;99.90;;;;;;5043975;28;20509;-87
2021/10/17 12:16:57;;;;;;;19.80;17.77;;;14.90;99.90;;;;;;5043262;28;20513;-90
2021/10/17 12:19:33;;;;;;;22.07;19.03;;;15.30;99.90;;;;;;5050740;28;20445;-90
2021/10/17 12:22:00;;;;;;;21.50;19.20;;;15.70;99.90;;;;;;5045739;28;20474;-88
2021/10/17 12:24:27;;;;;;;22.63;20.27;;;15.60;99.90;;;;;;5039405;28;20454;-88
2021/10/17 12:26:57;;;;;;;22.80;19.93;;;15.60;99.90;;;;;;5037261;28;20456;-89
2021/10/17 12:29:29;;;;;;;20.47;18.50;;;15.60;99.90;;;;;;5038316;28;20433;-89
2021/10/17 12:31:59;;;;;;;22.20;19.23;;;15.50;99.90;;;;;;5037084;28;20850;-89
2021/10/17 12:34:40;;;;;;;24.13;21.53;;;15.30;99.90;;;;;;5037798;28;20437;-88
2021/10/17 12:37:07;;;;;;;29.87;26.87;;;15.20;99.90;;;;;;5036861;28;20544;-88
2021/10/17 12:39:33;;;;;;;30.77;27.57;;;15.00;99.90;;;;;;5036119;28;20962;-88
2021/10/17 12:42:01;;;;;;;25.47;22.90;;;14.80;99.90;;;;;;5035995;28;20454;-88